Main page
METAR-TAF:

METAR-TAF

Airports :

Schwäbisch Hall, Germany

latitude: 49-07-06N, longitude: 9-47-02E, elevation: 398 m

Current weather observation

The report was made 31 minutes ago, at 05:50 UTC
Wind 6 kt from the East
Temperature 15°C
Humidity 94%
Pressure 1020 hPa
Visibility 10 km or more
Scattered clouds at a height of 3600 ft
Broken clouds at a height of 4900 ft

METAR: EDTY 200550Z 09006KT 9999 SCT036 BKN049 15/14 Q1020

Time: 08:21 (06:21 UTC)

Forecast

The report was made 1 hour and 21 minutes ago, at 05:00 UTC
Forecast valid from 20 at 06 UTC to 20 at 15 UTC
Wind 5 kt from the East
Visibility 10 km or more
Scattered clouds at a height of 4000 ft
Temporary
from 20 at 11 UTC to 20 at 14 UTC
Wind 5 kt from the North

TAF: EDTY 200500Z 2006/2015 08005KT 9999 SCT040 TEMPO 2011/2014 35005KT

Weather observations and forecasts of more than 4000 airports (METAR and TAF reports).

The available stations are represented by yellow and red dots on the map.

Hover mouse over dot to see the name of the station.

Then click to see weather observations and forecasts.

To change the map : click on the green buttons with a black cross to zoom in, on the green button with a dash to zoom out, or on the green arrows for adjacent maps.


METAR-TAF: